sensor_id;sensor_type;location;lat;lon;timestamp;pressure;altitude;pressure_sealevel;temperature;humidity
57248;BME280;55809;46.618;10.764;2023-06-10T00:00:18;92638.75;;;17.69;72.16
57248;BME280;55809;46.618;10.764;2023-06-10T00:02:47;92646.69;;;17.76;72.26
57248;BME280;55809;46.618;10.764;2023-06-10T00:05:16;92674.03;;;17.95;71.25
57248;BME280;55809;46.618;10.764;2023-06-10T00:07:47;92659.94;;;17.96;70.24
57248;BME280;55809;46.618;10.764;2023-06-10T00:10:16;92650.38;;;17.92;69.81
57248;BME280;55809;46.618;10.764;2023-06-10T00:12:45;92658.44;;;18.04;69.19
57248;BME280;55809;46.618;10.764;2023-06-10T00:15:13;92650.06;;;17.90;69.48
57248;BME280;55809;46.618;10.764;2023-06-10T00:17:44;92661.03;;;18.08;68.95
57248;BME280;55809;46.618;10.764;2023-06-10T00:20:13;92618.97;;;17.87;69.39
57248;BME280;55809;46.618;10.764;2023-06-10T00:22:41;92668.91;;;18.15;69.38
57248;BME280;55809;46.618;10.764;2023-06-10T00:25:12;92664.22;;;18.07;69.88
57248;BME280;55809;46.618;10.764;2023-06-10T00:27:40;92676.66;;;18.08;70.95
57248;BME280;55809;46.618;10.764;2023-06-10T00:30:10;92648.84;;;17.91;71.50
57248;BME280;55809;46.618;10.764;2023-06-10T00:32:38;92667.06;;;17.94;73.84
57248;BME280;55809;46.618;10.764;2023-06-10T00:35:12;92653.16;;;17.70;78.64
57248;BME280;55809;46.618;10.764;2023-06-10T00:37:40;92677.28;;;17.71;80.25
57248;BME280;55809;46.618;10.764;2023-06-10T00:40:09;92676.63;;;17.58;80.65
57248;BME280;55809;46.618;10.764;2023-06-10T00:42:38;92669.34;;;17.55;81.68
57248;BME280;55809;46.618;10.764;2023-06-10T00:45:09;92661.56;;;17.44;81.26
57248;BME280;55809;46.618;10.764;2023-06-10T00:47:38;92674.47;;;17.53;80.75
57248;BME280;55809;46.618;10.764;2023-06-10T00:50:07;92658.66;;;17.39;80.55
57248;BME280;55809;46.618;10.764;2023-06-10T00:52:41;92676.44;;;17.52;80.07
57248;BME280;55809;46.618;10.764;2023-06-10T00:55:11;92675.38;;;17.50;79.65
57248;BME280;55809;46.618;10.764;2023-06-10T00:57:39;92646.00;;;17.23;80.63
57248;BME280;55809;46.618;10.764;2023-06-10T01:00:11;92668.06;;;17.47;79.72
57248;BME280;55809;46.618;10.764;2023-06-10T01:02:40;92661.16;;;17.55;79.17
57248;BME280;55809;46.618;10.764;2023-06-10T01:05:09;92658.31;;;17.68;77.64
57248;BME280;55809;46.618;10.764;2023-06-10T01:07:56;92626.56;;;17.52;77.39
57248;BME280;55809;46.618;10.764;2023-06-10T01:10:33;92656.81;;;17.76;76.57
57248;BME280;55809;46.618;10.764;2023-06-10T01:13:06;92656.53;;;17.74;76.50
57248;BME280;55809;46.618;10.764;2023-06-10T01:15:38;92663.63;;;17.71;76.64
57248;BME280;55809;46.618;10.764;2023-06-10T01:18:08;92656.03;;;17.66;77.22
57248;BME280;55809;46.618;10.764;2023-06-10T01:20:42;92659.22;;;17.65;78.58
57248;BME280;55809;46.618;10.764;2023-06-10T01:23:15;92653.91;;;17.61;79.63
57248;BME280;55809;46.618;10.764;2023-06-10T01:25:47;92659.03;;;17.59;80.09
57248;BME280;55809;46.618;10.764;2023-06-10T01:28:19;92653.91;;;17.61;79.17
57248;BME280;55809;46.618;10.764;2023-06-10T01:30:56;92653.41;;;17.53;79.74
57248;BME280;55809;46.618;10.764;2023-06-10T01:33:34;92657.22;;;17.56;79.87
57248;BME280;55809;46.618;10.764;2023-06-10T01:36:03;92659.94;;;17.56;80.96
57248;BME280;55809;46.618;10.764;2023-06-10T01:38:36;92666.47;;;17.58;80.45
57248;BME280;55809;46.618;10.764;2023-06-10T01:41:11;92661.34;;;17.70;76.22
57248;BME280;55809;46.618;10.764;2023-06-10T01:43:40;92661.72;;;17.81;74.24
57248;BME280;55809;46.618;10.764;2023-06-10T01:46:11;92646.19;;;17.69;73.85
57248;BME280;55809;46.618;10.764;2023-06-10T01:48:40;92615.03;;;17.48;74.42
57248;BME280;55809;46.618;10.764;2023-06-10T01:51:16;92659.06;;;17.68;75.45
57248;BME280;55809;46.618;10.764;2023-06-10T01:53:47;92655.69;;;17.55;77.56
57248;BME280;55809;46.618;10.764;2023-06-10T01:56:16;92645.34;;;17.41;79.10
57248;BME280;55809;46.618;10.764;2023-06-10T01:58:46;92646.63;;;17.27;79.79
57248;BME280;55809;46.618;10.764;2023-06-10T02:01:14;92644.50;;;17.22;80.06
57248;BME280;55809;46.618;10.764;2023-06-10T02:03:42;92628.22;;;17.09;79.71
57248;BME280;55809;46.618;10.764;2023-06-10T02:06:11;92639.84;;;17.31;80.13
57248;BME280;55809;46.618;10.764;2023-06-10T02:08:39;92633.63;;;17.40;79.65
57248;BME280;55809;46.618;10.764;2023-06-10T02:11:10;92624.53;;;17.34;79.73
57248;BME280;55809;46.618;10.764;2023-06-10T02:13:39;92618.06;;;17.41;79.15
57248;BME280;55809;46.618;10.764;2023-06-10T02:16:07;92634.91;;;17.48;78.91
57248;BME280;55809;46.618;10.764;2023-06-10T02:18:38;92631.41;;;17.48;78.79
57248;BME280;55809;46.618;10.764;2023-06-10T02:21:11;92606.63;;;17.33;79.47
57248;BME280;55809;46.618;10.764;2023-06-10T02:23:39;92577.91;;;17.10;79.13
57248;BME280;55809;46.618;10.764;2023-06-10T02:26:09;92603.44;;;17.25;79.35
57248;BME280;55809;46.618;10.764;2023-06-10T02:28:38;92612.19;;;17.20;79.80
57248;BME280;55809;46.618;10.764;2023-06-10T02:31:07;92627.38;;;17.21;80.22
57248;BME280;55809;46.618;10.764;2023-06-10T02:33:35;92636.94;;;17.26;80.11
57248;BME280;55809;46.618;10.764;2023-06-10T02:36:06;92642.19;;;17.20;80.53
57248;BME280;55809;46.618;10.764;2023-06-10T02:38:35;92643.09;;;17.17;80.55
57248;BME280;55809;46.618;10.764;2023-06-10T02:41:03;92629.09;;;17.06;80.53
57248;BME280;55809;46.618;10.764;2023-06-10T02:43:35;92633.84;;;17.15;80.04
57248;BME280;55809;46.618;10.764;2023-06-10T02:46:02;92626.09;;;17.13;79.72
57248;BME280;55809;46.618;10.764;2023-06-10T02:48:31;92626.25;;;17.09;79.80
57248;BME280;55809;46.618;10.764;2023-06-10T02:50:59;92634.91;;;17.17;79.66
57248;BME280;55809;46.618;10.764;2023-06-10T02:53:27;92635.97;;;17.20;79.01
57248;BME280;55809;46.618;10.764;2023-06-10T02:55:54;92602.53;;;16.97;78.82
57248;BME280;55809;46.618;10.764;2023-06-10T02:58:23;92641.31;;;17.23;78.70
57248;BME280;55809;46.618;10.764;2023-06-10T03:00:51;92633.88;;;17.24;77.98
57248;BME280;55809;46.618;10.764;2023-06-10T03:03:20;92633.13;;;17.23;77.70
57248;BME280;55809;46.618;10.764;2023-06-10T03:05:51;92638.28;;;17.21;77.25
57248;BME280;55809;46.618;10.764;2023-06-10T03:08:19;92638.13;;;17.25;77.20
57248;BME280;55809;46.618;10.764;2023-06-10T03:10:46;92635.09;;;17.23;77.82
57248;BME280;55809;46.618;10.764;2023-06-10T03:13:17;92639.16;;;17.18;78.08
57248;BME280;55809;46.618;10.764;2023-06-10T03:15:44;92634.00;;;17.20;78.01
57248;BME280;55809;46.618;10.764;2023-06-10T03:18:16;92633.59;;;17.22;77.66
57248;BME280;55809;46.618;10.764;2023-06-10T03:20:45;92629.97;;;17.25;77.77
57248;BME280;55809;46.618;10.764;2023-06-10T03:23:16;92627.38;;;17.21;77.95
57248;BME280;55809;46.618;10.764;2023-06-10T03:25:45;92629.78;;;17.19;78.12
57248;BME280;55809;46.618;10.764;2023-06-10T03:28:21;92623.25;;;17.17;77.67
57248;BME280;55809;46.618;10.764;2023-06-10T03:30:50;92630.84;;;17.22;77.05
57248;BME280;55809;46.618;10.764;2023-06-10T03:33:21;92620.91;;;17.06;77.16
57248;BME280;55809;46.618;10.764;2023-06-10T03:35:50;92648.81;;;17.10;76.93
57248;BME280;55809;46.618;10.764;2023-06-10T03:38:17;92641.59;;;16.94;77.61
57248;BME280;55809;46.618;10.764;2023-06-10T03:40:48;92634.44;;;16.87;77.65
57248;BME280;55809;46.618;10.764;2023-06-10T03:43:19;92643.78;;;16.77;78.50
57248;BME280;55809;46.618;10.764;2023-06-10T03:45:48;92646.22;;;16.84;78.08
57248;BME280;55809;46.618;10.764;2023-06-10T03:48:16;92639.84;;;16.78;77.92
57248;BME280;55809;46.618;10.764;2023-06-10T03:50:47;92653.91;;;16.99;77.73
57248;BME280;55809;46.618;10.764;2023-06-10T03:53:17;92644.25;;;17.07;76.91
57248;BME280;55809;46.618;10.764;2023-06-10T03:55:46;92656.56;;;17.11;76.66
57248;BME280;55809;46.618;10.764;2023-06-10T03:58:14;92652.47;;;17.16;76.55
57248;BME280;55809;46.618;10.764;2023-06-10T04:00:44;92648.72;;;17.23;75.95
57248;BME280;55809;46.618;10.764;2023-06-10T04:03:13;92618.19;;;17.06;75.89
57248;BME280;55809;46.618;10.764;2023-06-10T04:05:41;92651.78;;;17.25;75.87
57248;BME280;55809;46.618;10.764;2023-06-10T04:08:13;92620.56;;;16.95;76.90
57248;BME280;55809;46.618;10.764;2023-06-10T04:10:42;92609.41;;;16.80;77.82
57248;BME280;55809;46.618;10.764;2023-06-10T04:13:10;92651.53;;;17.10;77.76
57248;BME280;55809;46.618;10.764;2023-06-10T04:15:37;92655.47;;;17.09;77.85
57248;BME280;55809;46.618;10.764;2023-06-10T04:18:08;92637.97;;;16.97;77.83
57248;BME280;55809;46.618;10.764;2023-06-10T04:20:37;92655.47;;;17.09;77.90
57248;BME280;55809;46.618;10.764;2023-06-10T04:23:04;92652.28;;;17.10;78.08
57248;BME280;55809;46.618;10.764;2023-06-10T04:25:35;92633.28;;;16.98;77.66
57248;BME280;55809;46.618;10.764;2023-06-10T04:28:02;92626.91;;;16.92;77.90
57248;BME280;55809;46.618;10.764;2023-06-10T04:30:30;92638.78;;;17.07;77.98
57248;BME280;55809;46.618;10.764;2023-06-10T04:33:00;92611.13;;;16.86;77.98
57248;BME280;55809;46.618;10.764;2023-06-10T04:35:27;92597.50;;;16.86;77.72
57248;BME280;55809;46.618;10.764;2023-06-10T04:37:54;92561.00;;;16.62;77.41
57248;BME280;55809;46.618;10.764;2023-06-10T04:40:24;92603.75;;;16.96;76.87
57248;BME280;55809;46.618;10.764;2023-06-10T04:42:55;92650.16;;;17.37;75.94
57248;BME280;55809;46.618;10.764;2023-06-10T04:45:23;92645.97;;;17.45;75.56
57248;BME280;55809;46.618;10.764;2023-06-10T04:47:51;92649.16;;;17.52;75.33
57248;BME280;55809;46.618;10.764;2023-06-10T04:50:22;92607.53;;;17.30;75.48
57248;BME280;55809;46.618;10.764;2023-06-10T04:52:51;92653.91;;;17.61;75.28
57248;BME280;55809;46.618;10.764;2023-06-10T04:55:19;92654.66;;;17.62;75.06
57248;BME280;55809;46.618;10.764;2023-06-10T04:57:48;92649.78;;;17.56;75.29
57248;BME280;55809;46.618;10.764;2023-06-10T05:00:19;92658.84;;;17.53;75.44
57248;BME280;55809;46.618;10.764;2023-06-10T05:02:48;92630.34;;;17.45;74.88
57248;BME280;55809;46.618;10.764;2023-06-10T05:05:18;92649.34;;;17.58;75.11
57248;BME280;55809;46.618;10.764;2023-06-10T05:07:45;92640.69;;;17.59;74.14
57248;BME280;55809;46.618;10.764;2023-06-10T05:10:13;92605.13;;;17.32;74.75
57248;BME280;55809;46.618;10.764;2023-06-10T05:12:41;92600.91;;;17.31;74.77
57248;BME280;55809;46.618;10.764;2023-06-10T05:15:09;92624.59;;;17.52;74.42
57248;BME280;55809;46.618;10.764;2023-06-10T05:17:40;92643.13;;;17.67;74.40
57248;BME280;55809;46.618;10.764;2023-06-10T05:20:08;92639.22;;;17.68;74.25
57248;BME280;55809;46.618;10.764;2023-06-10T05:22:37;92623.72;;;17.65;74.32
57248;BME280;55809;46.618;10.764;2023-06-10T05:25:05;92631.78;;;17.68;74.36
57248;BME280;55809;46.618;10.764;2023-06-10T05:27:35;92620.69;;;17.63;74.57
57248;BME280;55809;46.618;10.764;2023-06-10T05:30:05;92634.22;;;17.75;74.93
57248;BME280;55809;46.618;10.764;2023-06-10T05:32:33;92614.66;;;17.68;74.29
57248;BME280;55809;46.618;10.764;2023-06-10T05:35:04;92610.41;;;17.76;73.54
57248;BME280;55809;46.618;10.764;2023-06-10T05:37:34;92620.16;;;17.86;73.87
57248;BME280;55809;46.618;10.764;2023-06-10T05:40:06;92627.03;;;18.00;73.85
57248;BME280;55809;46.618;10.764;2023-06-10T05:42:35;92591.81;;;17.84;73.68
57248;BME280;55809;46.618;10.764;2023-06-10T05:45:03;92626.91;;;18.22;72.33
57248;BME280;55809;46.618;10.764;2023-06-10T05:47:33;92621.75;;;18.33;71.56
57248;BME280;55809;46.618;10.764;2023-06-10T05:50:04;92608.09;;;18.33;70.77
57248;BME280;55809;46.618;10.764;2023-06-10T05:52:32;92629.50;;;18.44;71.45
57248;BME280;55809;46.618;10.764;2023-06-10T05:55:04;92627.81;;;18.46;72.11
57248;BME280;55809;46.618;10.764;2023-06-10T05:57:43;92624.47;;;18.51;71.27
57248;BME280;55809;46.618;10.764;2023-06-10T06:00:13;92615.84;;;18.53;71.20
57248;BME280;55809;46.618;10.764;2023-06-10T06:02:40;92607.94;;;18.83;70.54
57248;BME280;55809;46.618;10.764;2023-06-10T06:05:11;92603.47;;;19.04;69.60
57248;BME280;55809;46.618;10.764;2023-06-10T06:07:39;92601.00;;;19.15;69.32
57248;BME280;55809;46.618;10.764;2023-06-10T06:10:08;92600.72;;;19.46;68.50
57248;BME280;55809;46.618;10.764;2023-06-10T06:12:38;92603.84;;;19.96;67.37
57248;BME280;55809;46.618;10.764;2023-06-10T06:15:05;92603.31;;;20.31;66.12
57248;BME280;55809;46.618;10.764;2023-06-10T06:17:36;92593.56;;;20.54;64.88
57248;BME280;55809;46.618;10.764;2023-06-10T06:20:06;92604.66;;;20.89;63.55
57248;BME280;55809;46.618;10.764;2023-06-10T06:22:35;92577.22;;;21.19;62.11
57248;BME280;55809;46.618;10.764;2023-06-10T06:25:04;92593.31;;;21.56;61.08
57248;BME280;55809;46.618;10.764;2023-06-10T06:27:32;92594.44;;;21.84;60.96
57248;BME280;55809;46.618;10.764;2023-06-10T06:30:01;92595.09;;;21.59;61.48
57248;BME280;55809;46.618;10.764;2023-06-10T06:32:28;92591.06;;;21.39;61.31
57248;BME280;55809;46.618;10.764;2023-06-10T06:34:57;92586.19;;;21.34;61.64
57248;BME280;55809;46.618;10.764;2023-06-10T06:37:26;92596.34;;;21.43;61.52
57248;BME280;55809;46.618;10.764;2023-06-10T06:39:58;92551.59;;;21.72;60.38
57248;BME280;55809;46.618;10.764;2023-06-10T06:42:26;92584.31;;;22.52;59.07
57248;BME280;55809;46.618;10.764;2023-06-10T06:44:53;92563.16;;;22.84;57.28
57248;BME280;55809;46.618;10.764;2023-06-10T06:47:22;92579.34;;;23.02;56.42
57248;BME280;55809;46.618;10.764;2023-06-10T06:49:51;92578.66;;;23.39;54.68
57248;BME280;55809;46.618;10.764;2023-06-10T06:52:19;92572.22;;;23.79;54.37
57248;BME280;55809;46.618;10.764;2023-06-10T06:54:49;92570.38;;;24.14;53.22
57248;BME280;55809;46.618;10.764;2023-06-10T06:57:23;92563.66;;;24.31;51.89
57248;BME280;55809;46.618;10.764;2023-06-10T06:59:50;92573.63;;;24.66;51.07
57248;BME280;55809;46.618;10.764;2023-06-10T07:02:17;92569.66;;;24.95;50.05
57248;BME280;55809;46.618;10.764;2023-06-10T07:04:44;92560.72;;;24.41;51.00
57248;BME280;55809;46.618;10.764;2023-06-10T07:07:14;92581.16;;;24.17;51.75
57248;BME280;55809;46.618;10.764;2023-06-10T07:09:41;92573.44;;;23.78;52.59
57248;BME280;55809;46.618;10.764;2023-06-10T07:12:09;92574.03;;;23.56;53.60
57248;BME280;55809;46.618;10.764;2023-06-10T07:14:38;92567.22;;;23.83;53.24
57248;BME280;55809;46.618;10.764;2023-06-10T07:17:05;92562.88;;;24.20;52.63
57248;BME280;55809;46.618;10.764;2023-06-10T07:19:32;92541.78;;;24.76;50.67
57248;BME280;55809;46.618;10.764;2023-06-10T07:21:59;92554.41;;;25.34;49.71
57248;BME280;55809;46.618;10.764;2023-06-10T07:24:26;92544.09;;;25.51;48.46
57248;BME280;55809;46.618;10.764;2023-06-10T07:26:53;92549.09;;;25.86;46.73
57248;BME280;55809;46.618;10.764;2023-06-10T07:29:20;92542.53;;;26.06;46.05
57248;BME280;55809;46.618;10.764;2023-06-10T07:31:49;92548.00;;;26.23;46.89
57248;BME280;55809;46.618;10.764;2023-06-10T07:34:16;92545.16;;;26.40;45.52
57248;BME280;55809;46.618;10.764;2023-06-10T07:36:43;92570.19;;;26.76;44.97
57248;BME280;55809;46.618;10.764;2023-06-10T07:39:11;92535.13;;;26.84;42.93
57248;BME280;55809;46.618;10.764;2023-06-10T07:41:38;92540.88;;;27.33;42.09
57248;BME280;55809;46.618;10.764;2023-06-10T07:44:05;92538.78;;;27.69;41.39
57248;BME280;55809;46.618;10.764;2023-06-10T07:46:32;92523.47;;;27.63;42.21
57248;BME280;55809;46.618;10.764;2023-06-10T07:49:01;92547.00;;;27.80;41.92
57248;BME280;55809;46.618;10.764;2023-06-10T07:51:28;92536.53;;;27.98;41.21
57248;BME280;55809;46.618;10.764;2023-06-10T07:53:55;92538.94;;;28.07;42.40
57248;BME280;55809;46.618;10.764;2023-06-10T07:56:22;92524.22;;;28.37;41.62
57248;BME280;55809;46.618;10.764;2023-06-10T07:58:50;92528.97;;;28.42;42.29
57248;BME280;55809;46.618;10.764;2023-06-10T08:01:17;92521.66;;;28.63;40.66
57248;BME280;55809;46.618;10.764;2023-06-10T08:03:45;92515.50;;;28.70;41.02
57248;BME280;55809;46.618;10.764;2023-06-10T08:06:13;92495.81;;;28.68;38.74
57248;BME280;55809;46.618;10.764;2023-06-10T08:08:42;92491.31;;;29.03;39.66
57248;BME280;55809;46.618;10.764;2023-06-10T08:11:10;92510.09;;;29.29;39.84
57248;BME280;55809;46.618;10.764;2023-06-10T08:13:38;92498.38;;;29.36;39.90
57248;BME280;55809;46.618;10.764;2023-06-10T08:16:05;92506.97;;;29.19;37.49
57248;BME280;55809;46.618;10.764;2023-06-10T08:18:32;92502.25;;;29.14;38.83
57248;BME280;55809;46.618;10.764;2023-06-10T08:21:00;92501.72;;;29.16;38.23
57248;BME280;55809;46.618;10.764;2023-06-10T08:23:28;92493.53;;;29.05;39.74
57248;BME280;55809;46.618;10.764;2023-06-10T08:25:55;92464.13;;;28.77;38.85
57248;BME280;55809;46.618;10.764;2023-06-10T08:28:23;92485.56;;;28.95;39.58
57248;BME280;55809;46.618;10.764;2023-06-10T08:30:50;92489.88;;;28.96;40.63
57248;BME280;55809;46.618;10.764;2023-06-10T08:33:18;92483.88;;;28.92;39.83
57248;BME280;55809;46.618;10.764;2023-06-10T08:35:45;92482.97;;;29.03;38.49
57248;BME280;55809;46.618;10.764;2023-06-10T08:38:13;92480.28;;;29.30;39.63
57248;BME280;55809;46.618;10.764;2023-06-10T08:40:43;92422.34;;;29.02;39.06
57248;BME280;55809;46.618;10.764;2023-06-10T08:43:16;92479.56;;;29.42;39.64
57248;BME280;55809;46.618;10.764;2023-06-10T08:45:45;92477.94;;;29.47;38.63
57248;BME280;55809;46.618;10.764;2023-06-10T08:48:14;92484.72;;;29.52;39.74
57248;BME280;55809;46.618;10.764;2023-06-10T08:50:44;92448.06;;;29.21;39.29
57248;BME280;55809;46.618;10.764;2023-06-10T08:53:17;92468.88;;;29.47;39.52
57248;BME280;55809;46.618;10.764;2023-06-10T08:55:50;92471.53;;;29.39;39.36
57248;BME280;55809;46.618;10.764;2023-06-10T08:58:20;92469.78;;;29.23;40.02
57248;BME280;55809;46.618;10.764;2023-06-10T09:00:47;92442.59;;;29.15;38.72
57248;BME280;55809;46.618;10.764;2023-06-10T09:03:14;92427.44;;;29.16;40.50
57248;BME280;55809;46.618;10.764;2023-06-10T09:05:42;92463.31;;;29.47;40.68
57248;BME280;55809;46.618;10.764;2023-06-10T09:08:10;92452.28;;;29.54;40.10
57248;BME280;55809;46.618;10.764;2023-06-10T09:10:37;92441.00;;;28.88;39.78
57248;BME280;55809;46.618;10.764;2023-06-10T09:13:08;92454.41;;;29.35;39.14
57248;BME280;55809;46.618;10.764;2023-06-10T09:15:35;92458.81;;;29.43;39.60
57248;BME280;55809;46.618;10.764;2023-06-10T09:18:05;92465.69;;;29.56;40.73
57248;BME280;55809;46.618;10.764;2023-06-10T09:20:33;92451.25;;;29.71;38.08
57248;BME280;55809;46.618;10.764;2023-06-10T09:23:02;92423.13;;;29.74;38.97
57248;BME280;55809;46.618;10.764;2023-06-10T09:25:36;92431.03;;;29.83;39.72
57248;BME280;55809;46.618;10.764;2023-06-10T09:28:04;92452.38;;;29.35;39.71
57248;BME280;55809;46.618;10.764;2023-06-10T09:30:34;92451.84;;;29.37;40.99
57248;BME280;55809;46.618;10.764;2023-06-10T09:33:03;92422.59;;;29.04;40.04
57248;BME280;55809;46.618;10.764;2023-06-10T09:35:35;92457.50;;;29.44;41.03
57248;BME280;55809;46.618;10.764;2023-06-10T09:38:03;92455.56;;;29.26;39.29
57248;BME280;55809;46.618;10.764;2023-06-10T09:40:30;92446.31;;;29.05;40.76
57248;BME280;55809;46.618;10.764;2023-06-10T09:42:59;92450.13;;;29.02;41.21
57248;BME280;55809;46.618;10.764;2023-06-10T09:45:29;92449.88;;;28.86;41.95
57248;BME280;55809;46.618;10.764;2023-06-10T09:47:59;92448.69;;;28.44;42.51
57248;BME280;55809;46.618;10.764;2023-06-10T09:50:26;92424.00;;;28.91;43.17
57248;BME280;55809;46.618;10.764;2023-06-10T09:52:53;92446.66;;;28.95;42.31
57248;BME280;55809;46.618;10.764;2023-06-10T09:55:20;92436.84;;;28.94;40.35
57248;BME280;55809;46.618;10.764;2023-06-10T09:57:49;92439.78;;;29.02;41.70
57248;BME280;55809;46.618;10.764;2023-06-10T10:00:17;92439.53;;;29.19;41.30
57248;BME280;55809;46.618;10.764;2023-06-10T10:02:50;92430.22;;;28.97;40.62
57248;BME280;55809;46.618;10.764;2023-06-10T10:05:22;92429.91;;;29.33;42.79
57248;BME280;55809;46.618;10.764;2023-06-10T10:07:58;92432.78;;;29.28;40.01
57248;BME280;55809;46.618;10.764;2023-06-10T10:10:27;92402.94;;;28.83;41.30
57248;BME280;55809;46.618;10.764;2023-06-10T10:12:55;92416.63;;;29.13;41.02
57248;BME280;55809;46.618;10.764;2023-06-10T10:15:29;92429.06;;;29.38;39.01
57248;BME280;55809;46.618;10.764;2023-06-10T10:18:06;92423.63;;;29.59;40.09
57248;BME280;55809;46.618;10.764;2023-06-10T10:20:43;92386.97;;;29.61;40.20
57248;BME280;55809;46.618;10.764;2023-06-10T10:23:33;92409.00;;;29.85;38.98
57248;BME280;55809;46.618;10.764;2023-06-10T10:26:10;92416.16;;;29.94;39.15
57248;BME280;55809;46.618;10.764;2023-06-10T10:28:44;92412.53;;;29.86;38.01
57248;BME280;55809;46.618;10.764;2023-06-10T10:31:16;92400.97;;;29.95;40.43
57248;BME280;55809;46.618;10.764;2023-06-10T10:33:55;92400.22;;;30.08;38.43
57248;BME280;55809;46.618;10.764;2023-06-10T10:36:29;92403.78;;;29.82;38.27
57248;BME280;55809;46.618;10.764;2023-06-10T10:39:01;92406.22;;;29.99;38.11
57248;BME280;55809;46.618;10.764;2023-06-10T10:41:30;92382.44;;;29.58;39.74
57248;BME280;55809;46.618;10.764;2023-06-10T10:44:00;92376.13;;;28.15;41.11
57248;BME280;55809;46.618;10.764;2023-06-10T10:46:41;92398.56;;;27.98;42.95
57248;BME280;55809;46.618;10.764;2023-06-10T10:49:14;92392.25;;;27.54;44.02
57248;BME280;55809;46.618;10.764;2023-06-10T10:51:58;92397.06;;;27.73;43.81
57248;BME280;55809;46.618;10.764;2023-06-10T10:54:31;92380.66;;;27.31;45.14
57248;BME280;55809;46.618;10.764;2023-06-10T10:57:16;92395.47;;;27.04;46.19
57248;BME280;55809;46.618;10.764;2023-06-10T10:59:56;92382.25;;;27.21;46.03
57248;BME280;55809;46.618;10.764;2023-06-10T11:02:36;92385.88;;;27.84;43.23
57248;BME280;55809;46.618;10.764;2023-06-10T11:05:07;92387.00;;;28.32;41.00
57248;BME280;55809;46.618;10.764;2023-06-10T11:07:53;92383.13;;;28.41;41.35
57248;BME280;55809;46.618;10.764;2023-06-10T11:10:30;92383.38;;;28.56;42.16
57248;BME280;55809;46.618;10.764;2023-06-10T11:12:59;92377.94;;;28.32;40.02
57248;BME280;55809;46.618;10.764;2023-06-10T11:15:30;92381.34;;;28.43;42.55
57248;BME280;55809;46.618;10.764;2023-06-10T11:18:09;92380.34;;;28.41;43.01
57248;BME280;55809;46.618;10.764;2023-06-10T11:21:00;92374.81;;;28.41;41.25
57248;BME280;55809;46.618;10.764;2023-06-10T11:23:42;92369.16;;;28.27;40.09
57248;BME280;55809;46.618;10.764;2023-06-10T11:26:13;92376.81;;;28.21;43.32
57248;BME280;55809;46.618;10.764;2023-06-10T11:31:49;92371.03;;;27.81;44.22
57248;BME280;55809;46.618;10.764;2023-06-10T11:34:24;92365.66;;;27.65;43.68
57248;BME280;55809;46.618;10.764;2023-06-10T11:36:54;92361.38;;;27.64;43.14
57248;BME280;55809;46.618;10.764;2023-06-10T11:39:27;92357.25;;;27.51;43.58
57248;BME280;55809;46.618;10.764;2023-06-10T11:41:56;92332.81;;;27.01;43.96
57248;BME280;55809;46.618;10.764;2023-06-10T11:44:27;92348.44;;;26.98;44.53
57248;BME280;55809;46.618;10.764;2023-06-10T11:46:56;92325.50;;;26.43;43.89
57248;BME280;55809;46.618;10.764;2023-06-10T11:49:23;92349.19;;;26.38;44.59
57248;BME280;55809;46.618;10.764;2023-06-10T11:51:50;92336.84;;;26.39;44.59
57248;BME280;55809;46.618;10.764;2023-06-10T11:54:18;92342.38;;;26.39;46.49
57248;BME280;55809;46.618;10.764;2023-06-10T11:56:47;92338.59;;;26.07;46.74
57248;BME280;55809;46.618;10.764;2023-06-10T11:59:14;92335.84;;;26.01;45.66
57248;BME280;55809;46.618;10.764;2023-06-10T12:01:43;92331.66;;;25.89;46.12
57248;BME280;55809;46.618;10.764;2023-06-10T12:04:12;92333.44;;;25.75;48.71
57248;BME280;55809;46.618;10.764;2023-06-10T12:06:40;92338.50;;;25.71;50.64
57248;BME280;55809;46.618;10.764;2023-06-10T12:09:14;92331.06;;;25.49;51.73
57248;BME280;55809;46.618;10.764;2023-06-10T12:11:42;92334.63;;;25.44;51.91
57248;BME280;55809;46.618;10.764;2023-06-10T12:14:11;92334.69;;;25.21;58.54
57248;BME280;55809;46.618;10.764;2023-06-10T12:16:38;92310.34;;;25.09;59.86
57248;BME280;55809;46.618;10.764;2023-06-10T12:19:06;92332.88;;;25.35;60.27
57248;BME280;55809;46.618;10.764;2023-06-10T12:21:36;92322.28;;;25.50;59.05
57248;BME280;55809;46.618;10.764;2023-06-10T12:24:08;92319.19;;;25.60;59.10
57248;BME280;55809;46.618;10.764;2023-06-10T12:26:41;92320.38;;;25.87;53.80
57248;BME280;55809;46.618;10.764;2023-06-10T12:29:32;92326.66;;;25.76;49.50
57248;BME280;55809;46.618;10.764;2023-06-10T12:32:01;92323.91;;;25.82;49.81
57248;BME280;55809;46.618;10.764;2023-06-10T12:34:33;92315.31;;;25.91;47.30
57248;BME280;55809;46.618;10.764;2023-06-10T12:37:01;92315.19;;;26.08;46.98
57248;BME280;55809;46.618;10.764;2023-06-10T12:39:30;92313.47;;;25.99;43.92
57248;BME280;55809;46.618;10.764;2023-06-10T12:41:57;92304.53;;;25.76;45.64
57248;BME280;55809;46.618;10.764;2023-06-10T12:44:34;92309.59;;;25.72;45.46
57248;BME280;55809;46.618;10.764;2023-06-10T12:47:07;92307.28;;;25.87;44.81
57248;BME280;55809;46.618;10.764;2023-06-10T12:49:36;92284.97;;;25.74;45.85
57248;BME280;55809;46.618;10.764;2023-06-10T12:52:04;92307.91;;;25.63;45.01
57248;BME280;55809;46.618;10.764;2023-06-10T12:54:31;92311.69;;;25.60;45.29
57248;BME280;55809;46.618;10.764;2023-06-10T12:56:58;92302.41;;;25.58;48.27
57248;BME280;55809;46.618;10.764;2023-06-10T12:59:26;92301.47;;;25.44;47.74
57248;BME280;55809;46.618;10.764;2023-06-10T13:01:55;92293.63;;;25.54;48.06
57248;BME280;55809;46.618;10.764;2023-06-10T13:04:22;92293.09;;;25.61;47.88
57248;BME280;55809;46.618;10.764;2023-06-10T13:06:49;92290.53;;;25.68;45.00